Time;durP1;ratioP1;P1;durP2;ratioP2;P2;SDS_P1;SDS_P2;PMS_P1;PMS_P2;Temp;Humidity;BMP_temperature;BMP_pressure;BME280_temperature;BME280_humidity;BME280_pressure;Samples;Min_cycle;Max_cycle;Signal;HPM_P1;HPM_P2
2022/03/15 00:02:21;;;;;;;25.38;9.75;;;10.00;99.90;;;;;;5033620;28;20084;-79
2022/03/15 00:04:47;;;;;;;33.97;10.02;;;10.10;99.90;;;;;;5033877;28;20033;-79
2022/03/15 00:07:15;;;;;;;30.83;9.82;;;10.10;99.90;;;;;;5015858;28;20473;-78
2022/03/15 00:09:42;;;;;;;28.25;9.48;;;10.20;99.90;;;;;;5033656;28;20080;-79
2022/03/15 00:12:09;;;;;;;21.05;10.25;;;10.20;99.90;;;;;;4996785;28;20417;-79
2022/03/15 00:14:38;;;;;;;27.95;9.10;;;10.10;99.90;;;;;;5013867;28;20024;-77
2022/03/15 00:17:05;;;;;;;27.23;10.85;;;10.20;99.90;;;;;;5013339;28;20030;-77
2022/03/15 00:19:34;;;;;;;33.08;10.32;;;10.10;99.90;;;;;;5013518;28;20076;-77
2022/03/15 00:22:01;;;;;;;25.27;9.48;;;10.20;99.90;;;;;;5013593;28;20034;-78
2022/03/15 00:24:27;;;;;;;27.23;9.85;;;9.90;99.90;;;;;;5013708;28;20471;-79
2022/03/15 00:26:54;;;;;;;19.67;9.27;;;9.90;99.90;;;;;;5016546;28;20080;-77
2022/03/15 00:29:23;;;;;;;30.77;10.07;;;9.80;99.90;;;;;;5033573;28;20466;-79
2022/03/15 00:31:49;;;;;;;24.85;9.38;;;9.80;99.90;;;;;;5033032;28;20112;-78
2022/03/15 00:34:15;;;;;;;24.50;9.88;;;9.80;99.90;;;;;;5015473;28;20033;-80
2022/03/15 00:36:41;;;;;;;29.85;10.55;;;9.70;99.90;;;;;;5033264;28;20032;-76
2022/03/15 00:39:08;;;;;;;26.30;10.23;;;9.60;99.90;;;;;;5033208;28;20385;-79
2022/03/15 00:41:35;;;;;;;20.00;9.32;;;9.80;99.90;;;;;;5015714;28;20032;-75
2022/03/15 00:44:01;;;;;;;19.05;9.63;;;9.90;99.90;;;;;;5033030;28;20025;-76
2022/03/15 00:46:27;;;;;;;24.80;10.70;;;9.90;99.90;;;;;;5032974;28;20025;-77
2022/03/15 00:48:54;;;;;;;33.83;9.13;;;9.80;99.90;;;;;;5032870;28;20428;-76
2022/03/15 00:51:20;;;;;;;25.23;9.77;;;9.60;99.90;;;;;;5033187;28;20067;-75
2022/03/15 00:53:45;;;;;;;21.58;9.43;;;9.10;99.90;;;;;;5032716;28;20469;-75
2022/03/15 00:56:11;;;;;;;22.90;9.30;;;9.50;99.90;;;;;;5015297;28;20056;-76
2022/03/15 00:58:37;;;;;;;28.23;10.10;;;9.60;99.90;;;;;;5014878;28;20427;-76
2022/03/15 01:01:08;;;;;;;24.10;10.38;;;9.50;99.90;;;;;;5015450;28;20120;-75
2022/03/15 01:03:33;;;;;;;25.52;10.05;;;9.40;99.90;;;;;;5032749;28;20168;-75
2022/03/15 01:05:59;;;;;;;37.33;9.65;;;9.30;99.90;;;;;;5015221;28;20021;-78
2022/03/15 01:08:25;;;;;;;25.95;9.23;;;9.10;99.90;;;;;;4997757;28;20469;-76
2022/03/15 01:10:51;;;;;;;23.77;9.00;;;9.00;99.90;;;;;;5006506;28;20129;-75
2022/03/15 01:13:18;;;;;;;34.15;12.10;;;9.00;99.90;;;;;;4994925;28;20573;-75
2022/03/15 01:15:44;;;;;;;21.90;8.93;;;9.30;99.90;;;;;;5013099;28;20100;-75
2022/03/15 01:18:13;;;;;;;20.58;8.70;;;9.40;99.90;;;;;;4995045;28;20037;-79
2022/03/15 01:20:41;;;;;;;28.98;9.32;;;9.60;99.90;;;;;;5013063;28;20034;-79
2022/03/15 01:23:07;;;;;;;23.58;8.93;;;9.60;99.90;;;;;;4995811;28;20022;-77
2022/03/15 01:25:33;;;;;;;23.45;8.45;;;9.70;99.90;;;;;;5012913;28;20099;-78
2022/03/15 01:27:59;;;;;;;27.92;9.57;;;9.40;99.90;;;;;;5006799;28;20116;-78
2022/03/15 01:30:30;;;;;;;19.17;8.27;;;9.30;99.90;;;;;;5014766;28;20048;-79
2022/03/15 01:32:56;;;;;;;25.90;8.85;;;9.30;99.90;;;;;;4998891;28;20083;-77
2022/03/15 01:35:22;;;;;;;25.25;9.88;;;9.20;99.90;;;;;;5014730;28;20030;-77
2022/03/15 01:37:48;;;;;;;23.52;8.35;;;9.30;99.90;;;;;;5032417;28;20026;-76
2022/03/15 01:40:13;;;;;;;19.77;8.45;;;9.50;99.90;;;;;;5014818;28;20060;-79
2022/03/15 01:42:40;;;;;;;21.75;9.10;;;9.50;99.90;;;;;;5014649;28;20397;-77
2022/03/15 01:45:07;;;;;;;24.15;9.10;;;9.60;99.90;;;;;;5014720;28;20044;-79
2022/03/15 01:47:36;;;;;;;22.27;9.32;;;9.70;99.90;;;;;;5014652;28;20022;-78
2022/03/15 01:50:02;;;;;;;27.88;9.02;;;9.80;99.90;;;;;;5032161;28;20048;-79
2022/03/15 01:52:28;;;;;;;27.52;9.00;;;9.70;99.90;;;;;;5014695;28;20366;-76
2022/03/15 01:54:55;;;;;;;24.30;9.32;;;9.50;99.90;;;;;;5032304;28;20428;-78
2022/03/15 01:57:21;;;;;;;19.98;8.32;;;9.30;99.90;;;;;;5032094;28;20088;-76
2022/03/15 01:59:46;;;;;;;23.65;8.93;;;9.40;99.90;;;;;;5014699;28;20022;-77
2022/03/15 02:02:12;;;;;;;22.83;9.20;;;9.50;99.90;;;;;;5014474;28;20503;-76
2022/03/15 02:04:38;;;;;;;25.80;8.48;;;9.40;99.90;;;;;;5032186;28;20021;-78
2022/03/15 02:07:12;;;;;;;31.08;8.68;;;9.30;99.90;;;;;;5032253;28;20109;-78
2022/03/15 02:09:40;;;;;;;31.45;9.10;;;9.20;99.90;;;;;;5014555;28;20107;-79
2022/03/15 02:12:07;;;;;;;17.90;8.30;;;9.30;99.90;;;;;;4994416;28;20454;-79
2022/03/15 02:14:34;;;;;;;29.33;9.25;;;9.30;99.90;;;;;;5012451;28;20030;-79
2022/03/15 02:17:00;;;;;;;20.67;9.07;;;9.40;99.90;;;;;;5012300;28;20037;-76
2022/03/15 02:19:27;;;;;;;23.30;7.80;;;9.20;99.90;;;;;;5013536;28;20057;-78
2022/03/15 02:21:57;;;;;;;22.10;8.10;;;9.10;99.90;;;;;;5015948;28;20449;-79
2022/03/15 02:24:23;;;;;;;32.65;9.38;;;9.00;99.90;;;;;;5015908;28;20076;-76
2022/03/15 02:26:51;;;;;;;27.38;8.82;;;9.20;99.90;;;;;;5017777;28;20028;-76
2022/03/15 02:29:18;;;;;;;27.60;10.05;;;9.20;99.90;;;;;;5035650;28;20036;-76
2022/03/15 02:31:43;;;;;;;24.63;8.60;;;9.40;99.90;;;;;;5019784;28;20033;-78
2022/03/15 02:34:09;;;;;;;23.67;8.50;;;9.00;99.90;;;;;;5015743;28;20113;-76
2022/03/15 02:36:35;;;;;;;21.35;9.43;;;8.90;99.90;;;;;;5015746;28;20148;-78
2022/03/15 02:39:04;;;;;;;31.50;10.65;;;9.10;99.90;;;;;;4998427;28;20018;-77
2022/03/15 02:41:30;;;;;;;21.70;9.25;;;9.10;99.90;;;;;;5015370;28;20026;-78
2022/03/15 02:43:58;;;;;;;26.05;10.63;;;9.10;99.90;;;;;;5015515;28;20034;-75
2022/03/15 02:46:34;;;;;;;19.92;9.60;;;9.20;99.90;;;;;;5015395;28;20041;-78
2022/03/15 02:49:00;;;;;;;27.95;10.75;;;9.20;99.90;;;;;;5015450;28;20109;-75
2022/03/15 02:51:26;;;;;;;22.40;9.90;;;9.30;99.90;;;;;;5015223;28;20509;-76
2022/03/15 02:53:53;;;;;;;32.08;12.95;;;9.00;99.90;;;;;;5015450;28;20090;-75
2022/03/15 02:56:21;;;;;;;25.73;11.23;;;8.80;99.90;;;;;;4997511;28;20026;-79
2022/03/15 02:58:46;;;;;;;61.60;23.85;;;8.90;99.90;;;;;;5015182;28;20032;-77
2022/03/15 03:01:12;;;;;;;53.95;20.13;;;8.80;99.90;;;;;;5015196;28;20022;-77
2022/03/15 03:03:38;;;;;;;65.93;24.95;;;9.00;99.90;;;;;;5015036;28;20029;-77
2022/03/15 03:06:04;;;;;;;35.22;14.02;;;8.90;99.90;;;;;;5015284;28;20473;-79
2022/03/15 03:08:31;;;;;;;64.65;24.33;;;8.80;99.90;;;;;;5015119;28;20478;-78
2022/03/15 03:11:00;;;;;;;64.10;23.23;;;8.90;99.90;;;;;;5023725;28;20038;-79
2022/03/15 03:13:26;;;;;;;64.55;28.00;;;8.90;99.90;;;;;;5029053;28;20534;-75
2022/03/15 03:15:57;;;;;;;54.90;25.17;;;8.80;99.90;;;;;;4998012;28;20042;-77
2022/03/15 03:18:32;;;;;;;48.17;22.38;;;8.80;99.90;;;;;;5014640;28;20084;-76
2022/03/15 03:20:58;;;;;;;36.67;12.75;;;9.00;99.90;;;;;;5015034;28;20048;-77
2022/03/15 03:23:24;;;;;;;31.52;13.38;;;9.00;99.90;;;;;;5014780;28;20034;-80
2022/03/15 03:25:50;;;;;;;28.67;14.00;;;9.20;99.90;;;;;;5014403;28;20033;-78
2022/03/15 03:28:17;;;;;;;39.85;14.18;;;9.20;99.90;;;;;;5028942;28;20040;-77
2022/03/15 03:30:48;;;;;;;28.35;10.50;;;9.30;99.90;;;;;;5033445;28;20040;-77
2022/03/15 03:33:16;;;;;;;26.52;11.23;;;9.30;99.90;;;;;;5034261;28;20565;-80
2022/03/15 03:35:45;;;;;;;27.38;11.25;;;9.30;99.90;;;;;;5034371;28;20532;-78
2022/03/15 03:38:12;;;;;;;28.52;10.30;;;9.30;99.90;;;;;;5033921;28;20043;-79
2022/03/15 03:40:39;;;;;;;22.75;10.05;;;9.40;99.90;;;;;;5000070;28;20033;-77
2022/03/15 03:43:06;;;;;;;19.05;9.23;;;9.40;99.90;;;;;;5034189;28;20057;-78
2022/03/15 03:45:32;;;;;;;15.70;7.50;;;9.50;99.90;;;;;;5034059;28;20034;-79
2022/03/15 03:47:58;;;;;;;20.40;7.78;;;9.40;99.90;;;;;;5033954;28;20359;-80
2022/03/15 03:50:24;;;;;;;16.35;8.30;;;9.40;99.90;;;;;;5034026;28;20119;-79
2022/03/15 03:52:50;;;;;;;18.52;7.55;;;9.40;99.90;;;;;;5033584;28;20044;-77
2022/03/15 03:55:15;;;;;;;16.70;7.63;;;9.50;99.90;;;;;;5033878;28;20025;-77
2022/03/15 03:57:41;;;;;;;23.15;8.43;;;9.30;99.90;;;;;;5033783;28;20111;-78
2022/03/15 04:00:07;;;;;;;27.17;8.48;;;9.30;99.90;;;;;;5034046;28;20029;-78
2022/03/15 04:02:39;;;;;;;25.00;8.10;;;9.30;99.90;;;;;;5034064;28;20128;-79
2022/03/15 04:05:06;;;;;;;21.88;7.82;;;9.40;99.90;;;;;;5033875;28;20117;-80
2022/03/15 04:07:32;;;;;;;25.48;7.70;;;9.30;99.90;;;;;;5033116;28;20025;-80
2022/03/15 04:09:58;;;;;;;18.88;8.05;;;9.00;99.90;;;;;;5032465;28;20108;-80
2022/03/15 04:12:24;;;;;;;20.77;8.18;;;8.80;99.90;;;;;;5013788;28;20033;-80
2022/03/15 04:14:53;;;;;;;15.30;7.78;;;8.70;99.90;;;;;;5013954;28;20038;-80
2022/03/15 04:17:18;;;;;;;14.52;7.72;;;8.50;99.90;;;;;;5013669;28;20025;-79
2022/03/15 04:19:44;;;;;;;22.88;7.70;;;8.50;99.90;;;;;;5013451;28;20030;-80
2022/03/15 04:22:10;;;;;;;20.88;7.68;;;8.40;99.90;;;;;;4995766;28;20375;-78
2022/03/15 04:24:36;;;;;;;22.00;6.90;;;8.40;99.90;;;;;;5013727;28;20105;-79
2022/03/15 04:27:01;;;;;;;26.38;7.10;;;8.50;99.90;;;;;;5017881;28;20061;-79
2022/03/15 04:29:28;;;;;;;21.05;7.40;;;8.50;99.90;;;;;;5033210;28;20084;-80
2022/03/15 04:31:54;;;;;;;21.38;7.55;;;8.60;99.90;;;;;;5033057;28;20084;-79
2022/03/15 04:34:22;;;;;;;22.42;8.30;;;8.90;99.90;;;;;;5033197;28;20061;-80
2022/03/15 04:36:48;;;;;;;20.55;7.93;;;9.00;99.90;;;;;;5033022;28;20064;-78
2022/03/15 04:39:14;;;;;;;20.13;8.07;;;9.00;99.90;;;;;;5015379;28;20104;-80
2022/03/15 04:41:40;;;;;;;18.58;7.90;;;8.80;99.90;;;;;;5015470;28;20037;-80
2022/03/15 04:44:06;;;;;;;20.33;7.53;;;8.80;99.90;;;;;;5033073;28;20021;-80
2022/03/15 04:46:33;;;;;;;24.67;8.45;;;8.70;99.90;;;;;;5015173;28;20485;-78
2022/03/15 04:49:00;;;;;;;16.95;7.88;;;8.50;99.90;;;;;;5033017;28;20485;-78
2022/03/15 04:51:25;;;;;;;21.77;7.97;;;8.40;99.90;;;;;;5015031;28;20120;-79
2022/03/15 04:53:52;;;;;;;20.48;8.52;;;8.50;99.90;;;;;;5032937;28;20156;-80
2022/03/15 04:56:19;;;;;;;19.33;9.10;;;8.40;99.90;;;;;;5033113;28;20026;-79
2022/03/15 04:58:45;;;;;;;21.10;9.07;;;8.40;99.90;;;;;;5014862;28;20032;-79
2022/03/15 05:01:11;;;;;;;19.10;8.20;;;8.60;99.90;;;;;;5015158;28;20029;-79
2022/03/15 05:03:37;;;;;;;21.95;8.52;;;8.70;99.90;;;;;;5032513;28;20466;-79
2022/03/15 05:06:03;;;;;;;18.40;8.60;;;8.70;99.90;;;;;;5014890;28;20027;-76
2022/03/15 05:08:29;;;;;;;18.38;8.68;;;8.90;99.90;;;;;;5032762;28;20034;-80
2022/03/15 05:11:08;;;;;;;23.65;8.55;;;9.10;99.90;;;;;;5006003;28;20032;-80
2022/03/15 05:13:39;;;;;;;19.73;8.55;;;9.10;99.90;;;;;;5012994;28;20037;-80
2022/03/15 05:16:07;;;;;;;17.45;8.10;;;8.90;99.90;;;;;;5012996;28;20033;-78
2022/03/15 05:18:34;;;;;;;20.92;8.45;;;8.70;99.90;;;;;;5012696;28;20040;-79
2022/03/15 05:21:01;;;;;;;18.67;8.13;;;8.70;99.90;;;;;;5012576;28;20042;-77
2022/03/15 05:23:28;;;;;;;19.10;9.15;;;8.50;99.90;;;;;;5012817;28;20074;-78
2022/03/15 05:25:53;;;;;;;18.10;8.65;;;8.40;99.90;;;;;;5013011;28;20038;-77
2022/03/15 05:28:19;;;;;;;22.52;8.88;;;8.30;99.90;;;;;;5027337;28;20095;-80
2022/03/15 05:30:45;;;;;;;18.98;8.65;;;8.50;99.90;;;;;;4998390;28;20065;-77
2022/03/15 05:33:11;;;;;;;22.73;9.15;;;8.50;99.90;;;;;;5032592;28;20095;-81
2022/03/15 05:35:41;;;;;;;22.42;8.25;;;8.50;99.90;;;;;;5032477;28;20408;-76
2022/03/15 05:38:09;;;;;;;21.27;8.30;;;8.70;99.90;;;;;;5032538;28;20040;-78
2022/03/15 05:40:35;;;;;;;19.73;8.98;;;8.60;99.90;;;;;;5032325;28;20014;-77
2022/03/15 05:43:01;;;;;;;20.88;8.80;;;8.50;99.90;;;;;;5032447;28;20044;-76
2022/03/15 05:45:27;;;;;;;27.90;8.82;;;8.40;99.90;;;;;;5032447;28;20036;-78
2022/03/15 05:47:54;;;;;;;16.65;8.63;;;8.40;99.90;;;;;;5032511;28;20021;-75
2022/03/15 05:50:20;;;;;;;20.55;8.00;;;8.50;99.90;;;;;;5032173;28;20067;-75
2022/03/15 05:52:46;;;;;;;24.25;8.82;;;8.60;99.90;;;;;;5032386;28;20046;-78
2022/03/15 05:55:12;;;;;;;18.55;8.07;;;8.60;99.90;;;;;;5017216;28;20036;-74
2022/03/15 05:57:39;;;;;;;13.43;8.35;;;8.50;99.90;;;;;;5036213;28;20036;-76
2022/03/15 06:00:06;;;;;;;19.23;8.23;;;8.60;99.90;;;;;;5035896;28;20119;-79
2022/03/15 06:02:39;;;;;;;21.42;9.02;;;8.60;99.90;;;;;;5036068;28;20413;-75
2022/03/15 06:05:06;;;;;;;27.20;9.10;;;8.80;99.90;;;;;;5001375;28;20039;-78
2022/03/15 06:07:31;;;;;;;23.10;9.55;;;8.80;99.90;;;;;;5036014;28;20018;-74
2022/03/15 06:09:57;;;;;;;22.17;8.63;;;8.80;99.90;;;;;;5034756;28;20029;-75
2022/03/15 06:12:25;;;;;;;26.55;8.50;;;8.80;99.90;;;;;;5016098;28;20037;-75
2022/03/15 06:14:52;;;;;;;19.08;9.10;;;8.90;99.90;;;;;;5015923;28;20030;-75
2022/03/15 06:17:18;;;;;;;34.15;9.13;;;8.70;99.90;;;;;;4982159;28;20032;-75
2022/03/15 06:19:45;;;;;;;24.90;8.90;;;8.70;99.90;;;;;;5015329;28;20045;-76
2022/03/15 06:22:10;;;;;;;19.02;8.50;;;8.70;99.90;;;;;;5015916;28;20064;-77
2022/03/15 06:24:37;;;;;;;21.13;9.15;;;8.80;99.90;;;;;;5015805;28;20026;-75
2022/03/15 06:27:03;;;;;;;24.15;9.13;;;8.80;99.90;;;;;;5020182;28;20013;-76
2022/03/15 06:29:30;;;;;;;24.85;9.48;;;8.50;99.90;;;;;;5035418;28;20030;-78
2022/03/15 06:31:56;;;;;;;21.73;8.43;;;8.50;99.90;;;;;;5035321;28;20086;-77
2022/03/15 06:34:23;;;;;;;30.35;9.05;;;8.50;99.90;;;;;;5035297;28;20092;-76
2022/03/15 06:36:49;;;;;;;25.73;9.88;;;8.30;99.90;;;;;;5035423;28;20056;-75
2022/03/15 06:39:15;;;;;;;23.67;9.60;;;8.50;99.90;;;;;;5035274;28;20154;-76
2022/03/15 06:41:41;;;;;;;28.95;10.25;;;8.50;99.90;;;;;;5035185;28;20552;-77
2022/03/15 06:44:08;;;;;;;30.92;12.20;;;8.50;99.90;;;;;;5035164;28;20104;-74
2022/03/15 06:46:35;;;;;;;25.95;11.13;;;8.60;99.90;;;;;;5034706;28;20025;-78
2022/03/15 06:49:01;;;;;;;30.55;10.73;;;8.60;99.90;;;;;;5035316;28;20036;-79
2022/03/15 06:51:27;;;;;;;28.70;11.48;;;8.70;99.90;;;;;;5034842;28;20044;-79
2022/03/15 06:53:57;;;;;;;27.75;10.75;;;8.70;99.90;;;;;;5018832;28;20033;-78
2022/03/15 06:56:23;;;;;;;30.00;13.13;;;8.80;99.90;;;;;;5034685;28;20025;-76
2022/03/15 06:58:50;;;;;;;25.80;10.27;;;8.80;99.90;;;;;;5035002;28;20065;-78
2022/03/15 07:01:16;;;;;;;22.98;9.77;;;9.00;99.90;;;;;;5034550;28;20025;-77
2022/03/15 07:03:42;;;;;;;19.17;8.43;;;8.90;99.90;;;;;;5028326;28;20052;-78
2022/03/15 07:06:08;;;;;;;27.20;9.38;;;8.80;99.90;;;;;;4991744;28;20482;-77
2022/03/15 07:08:34;;;;;;;27.50;9.02;;;8.90;99.90;;;;;;5034980;28;20025;-77
2022/03/15 07:10:59;;;;;;;20.75;9.00;;;9.00;99.90;;;;;;5016467;28;20044;-78
2022/03/15 07:13:25;;;;;;;25.85;8.70;;;8.90;99.90;;;;;;5034639;28;20087;-79
2022/03/15 07:15:51;;;;;;;22.00;8.23;;;8.80;99.90;;;;;;5033645;28;20092;-79
2022/03/15 07:18:18;;;;;;;22.85;8.10;;;8.80;99.90;;;;;;5034176;28;20477;-79
2022/03/15 07:20:44;;;;;;;21.52;7.95;;;8.90;99.90;;;;;;5034475;28;20954;-78
2022/03/15 07:23:10;;;;;;;18.88;7.68;;;9.00;99.90;;;;;;5034387;28;20025;-80
2022/03/15 07:25:35;;;;;;;25.08;8.15;;;9.00;99.90;;;;;;5034295;28;20036;-76
2022/03/15 07:28:01;;;;;;;18.77;6.85;;;9.00;99.90;;;;;;5016669;28;20037;-80
2022/03/15 07:30:28;;;;;;;21.13;7.82;;;9.10;99.90;;;;;;5034196;28;20037;-79
2022/03/15 07:32:53;;;;;;;21.50;7.57;;;9.10;99.90;;;;;;5015896;28;20048;-78
2022/03/15 07:35:20;;;;;;;20.70;7.05;;;9.20;99.90;;;;;;5016326;28;20022;-76
2022/03/15 07:37:55;;;;;;;23.25;6.47;;;9.20;99.90;;;;;;5016493;28;20032;-75
2022/03/15 07:40:24;;;;;;;21.15;6.53;;;9.20;99.90;;;;;;5016112;28;20026;-79
2022/03/15 07:42:51;;;;;;;19.50;5.65;;;9.20;99.90;;;;;;5033525;28;20022;-80
2022/03/15 07:45:17;;;;;;;14.15;6.00;;;9.20;99.90;;;;;;5033035;28;20030;-81
2022/03/15 07:47:43;;;;;;;23.02;5.95;;;9.10;99.90;;;;;;5016193;28;20028;-80
2022/03/15 07:50:09;;;;;;;27.20;6.65;;;9.10;99.90;;;;;;5034632;28;20045;-80
2022/03/15 07:52:35;;;;;;;17.98;5.97;;;9.20;99.90;;;;;;5033673;28;20397;-81
2022/03/15 07:55:03;;;;;;;16.50;6.47;;;9.40;99.90;;;;;;5033953;28;20470;-77
2022/03/15 07:57:28;;;;;;;29.10;6.32;;;9.60;99.90;;;;;;5016021;28;20156;-79
2022/03/15 07:59:54;;;;;;;26.65;6.35;;;9.50;99.90;;;;;;5033659;28;20116;-82
2022/03/15 08:02:21;;;;;;;18.23;6.57;;;9.60;99.90;;;;;;5033832;28;20482;-80
2022/03/15 08:04:46;;;;;;;23.17;5.78;;;9.60;99.90;;;;;;5033321;28;20040;-79
2022/03/15 08:07:12;;;;;;;20.38;5.45;;;9.80;99.90;;;;;;5033445;28;20037;-78
2022/03/15 08:09:38;;;;;;;16.85;5.88;;;9.90;99.90;;;;;;5033712;28;20147;-80
2022/03/15 08:12:05;;;;;;;27.15;5.97;;;10.00;99.90;;;;;;5014803;28;20034;-79
2022/03/15 08:14:31;;;;;;;15.98;5.53;;;10.10;99.90;;;;;;5013717;28;20044;-76
2022/03/15 08:16:59;;;;;;;13.70;5.95;;;10.20;99.90;;;;;;5013137;28;20044;-75
2022/03/15 08:19:26;;;;;;;18.45;5.97;;;10.20;99.90;;;;;;5013502;28;20025;-79
2022/03/15 08:21:53;;;;;;;15.57;5.88;;;10.00;99.90;;;;;;5013580;28;20097;-76
2022/03/15 08:24:20;;;;;;;16.40;6.38;;;9.90;99.90;;;;;;5014136;28;20030;-75
2022/03/15 08:26:46;;;;;;;19.98;6.95;;;9.80;99.90;;;;;;4997997;28;20026;-76
2022/03/15 08:29:12;;;;;;;25.88;6.63;;;9.60;99.90;;;;;;5032463;28;20025;-75
2022/03/15 08:31:38;;;;;;;18.08;6.25;;;9.70;99.90;;;;;;5033227;28;20072;-80
2022/03/15 08:34:04;;;;;;;24.00;7.35;;;9.80;99.90;;;;;;5032805;28;20120;-75
2022/03/15 08:36:30;;;;;;;23.15;6.63;;;9.90;99.90;;;;;;5032950;28;20083;-77
2022/03/15 08:38:56;;;;;;;24.95;6.45;;;9.90;99.90;;;;;;5033206;28;20028;-80
2022/03/15 08:41:21;;;;;;;21.83;5.80;;;10.00;99.90;;;;;;5015044;28;20029;-76
2022/03/15 08:43:47;;;;;;;17.17;6.13;;;9.80;99.90;;;;;;5032580;28;20105;-75
2022/03/15 08:46:13;;;;;;;29.38;7.50;;;9.90;99.90;;;;;;5033097;28;20032;-75
2022/03/15 08:48:39;;;;;;;21.63;6.55;;;9.80;99.90;;;;;;5032859;28;20025;-74
2022/03/15 08:51:04;;;;;;;15.57;6.13;;;9.70;99.90;;;;;;5033182;28;20029;-75
2022/03/15 08:53:34;;;;;;;21.67;6.95;;;9.80;99.90;;;;;;5032626;28;20041;-76
2022/03/15 08:56:00;;;;;;;18.55;6.60;;;10.00;99.90;;;;;;5032300;28;20018;-74
2022/03/15 08:58:26;;;;;;;15.30;6.13;;;10.10;99.90;;;;;;5032446;28;20081;-75
2022/03/15 09:00:52;;;;;;;18.48;6.25;;;10.20;99.90;;;;;;5032960;28;20065;-77
2022/03/15 09:03:18;;;;;;;16.33;6.43;;;10.30;99.90;;;;;;5032659;28;20160;-75
2022/03/15 09:05:44;;;;;;;20.25;6.80;;;10.30;99.90;;;;;;5032450;28;20065;-76
2022/03/15 09:08:10;;;;;;;12.98;5.57;;;10.40;99.90;;;;;;5014893;28;20065;-75
2022/03/15 09:10:36;;;;;;;23.33;6.90;;;10.50;99.90;;;;;;5026037;28;20056;-75
2022/03/15 09:13:03;;;;;;;19.38;5.82;;;10.50;99.90;;;;;;5012572;28;20034;-75
2022/03/15 09:15:29;;;;;;;17.08;6.50;;;10.50;99.90;;;;;;5012827;28;20525;-75
2022/03/15 09:17:57;;;;;;;18.15;5.97;;;10.40;99.90;;;;;;4978545;28;20128;-75
2022/03/15 09:20:25;;;;;;;21.23;6.22;;;10.50;99.90;;;;;;5011784;28;20046;-75
2022/03/15 09:22:51;;;;;;;16.13;5.30;;;10.50;99.90;;;;;;5011629;28;20046;-75
2022/03/15 09:25:17;;;;;;;14.43;6.32;;;10.50;99.90;;;;;;5010868;28;20457;-75
2022/03/15 09:27:43;;;;;;;19.30;5.95;;;10.90;99.90;;;;;;5019218;28;20021;-79
2022/03/15 09:30:09;;;;;;;30.65;6.90;;;11.10;99.90;;;;;;5034064;28;20025;-75
2022/03/15 09:32:35;;;;;;;14.15;5.68;;;10.90;99.90;;;;;;5017377;28;20037;-76
2022/03/15 09:35:01;;;;;;;19.13;5.60;;;10.90;99.90;;;;;;5017252;28;20473;-75
2022/03/15 09:37:27;;;;;;;20.73;6.22;;;11.00;99.90;;;;;;5017550;28;20029;-74
2022/03/15 09:39:52;;;;;;;20.35;6.50;;;11.10;99.90;;;;;;5035167;28;20033;-78
2022/03/15 09:42:20;;;;;;;11.52;4.85;;;11.40;99.90;;;;;;5034909;28;20033;-79
2022/03/15 09:44:47;;;;;;;18.08;5.75;;;11.40;99.90;;;;;;5030961;28;20025;-76
2022/03/15 09:47:17;;;;;;;18.05;5.45;;;11.60;99.90;;;;;;4980674;28;20680;-79
2022/03/15 09:49:45;;;;;;;20.00;5.88;;;11.70;99.90;;;;;;5014548;28;20737;-75
2022/03/15 09:52:11;;;;;;;27.50;7.28;;;11.60;99.90;;;;;;5014377;28;20057;-76
2022/03/15 09:54:38;;;;;;;19.27;5.43;;;11.20;99.90;;;;;;5014500;28;20014;-76
2022/03/15 09:57:05;;;;;;;15.23;5.15;;;10.90;99.90;;;;;;4996334;28;20095;-76
2022/03/15 09:59:32;;;;;;;18.90;6.15;;;10.90;99.90;;;;;;5014689;28;20402;-76
2022/03/15 10:01:59;;;;;;;16.00;6.30;;;10.90;99.90;;;;;;5014852;28;20359;-75
2022/03/15 10:04:26;;;;;;;23.73;7.05;;;10.80;99.90;;;;;;5014364;28;20026;-75
2022/03/15 10:06:52;;;;;;;26.20;6.35;;;10.80;99.90;;;;;;5014253;28;20049;-75
2022/03/15 10:09:19;;;;;;;14.85;4.65;;;11.00;99.90;;;;;;5014457;28;20026;-74
2022/03/15 10:11:45;;;;;;;13.55;5.72;;;11.10;99.90;;;;;;5025693;28;20034;-74
2022/03/15 10:14:11;;;;;;;13.18;5.00;;;10.90;99.90;;;;;;5031142;28;20491;-75
2022/03/15 10:16:41;;;;;;;20.60;5.28;;;10.70;99.90;;;;;;5034311;28;20033;-74
2022/03/15 10:19:13;;;;;;;15.00;4.77;;;10.80;99.90;;;;;;4977250;28;1089178;-74
2022/03/15 10:21:49;;;;;;;14.95;5.43;;;10.90;99.90;;;;;;5026417;28;20112;-75
2022/03/15 10:24:22;;;;;;;29.00;5.57;;;11.00;99.90;;;;;;5034909;28;20033;-76
2022/03/15 10:26:53;;;;;;;21.90;5.93;;;11.00;99.90;;;;;;4999858;28;20477;-75
2022/03/15 10:29:21;;;;;;;16.00;5.70;;;11.00;99.90;;;;;;5018470;28;20030;-79
2022/03/15 10:31:47;;;;;;;16.30;5.47;;;11.40;99.90;;;;;;5029385;28;20033;-76
2022/03/15 10:34:15;;;;;;;16.17;5.43;;;11.60;99.90;;;;;;5015083;28;20468;-74
2022/03/15 10:36:43;;;;;;;23.25;6.07;;;11.80;99.90;;;;;;5016244;28;20422;-75
2022/03/15 10:39:11;;;;;;;22.52;5.53;;;11.90;99.90;;;;;;5002427;28;20382;-79
2022/03/15 10:41:51;;;;;;;19.50;5.40;;;11.90;99.90;;;;;;5033666;28;20048;-79
2022/03/15 10:44:23;;;;;;;21.98;5.30;;;11.90;99.90;;;;;;5034484;28;20031;-78
2022/03/15 10:47:00;;;;;;;19.55;5.32;;;12.20;99.90;;;;;;4983144;28;20490;-75
2022/03/15 10:49:26;;;;;;;23.73;5.32;;;12.30;99.90;;;;;;5015043;28;20037;-75
2022/03/15 10:51:52;;;;;;;22.75;5.55;;;12.20;99.90;;;;;;5021023;28;20064;-76
2022/03/15 10:54:18;;;;;;;9.50;4.50;;;12.40;99.90;;;;;;5034740;28;20055;-76
2022/03/15 10:56:58;;;;;;;19.98;4.43;;;12.50;99.90;;;;;;5010537;28;20378;-75
2022/03/15 10:59:28;;;;;;;22.88;5.18;;;12.40;99.90;;;;;;4997469;28;20430;-79
2022/03/15 11:01:54;;;;;;;13.77;5.45;;;12.20;99.90;;;;;;5014532;28;20032;-75
2022/03/15 11:04:20;;;;;;;14.90;4.93;;;12.10;99.90;;;;;;5014868;28;20378;-76
2022/03/15 11:06:48;;;;;;;20.17;5.75;;;11.90;99.90;;;;;;5014900;28;20541;-76
2022/03/15 11:09:40;;;;;;;18.27;5.57;;;12.10;99.90;;;;;;4997242;28;20022;-78
2022/03/15 11:12:08;;;;;;;11.43;4.95;;;12.00;99.90;;;;;;5033101;28;20080;-77
2022/03/15 11:14:44;;;;;;;14.33;5.20;;;12.10;99.90;;;;;;5015376;28;20026;-75
2022/03/15 11:17:18;;;;;;;13.82;5.30;;;12.20;99.90;;;;;;5033059;28;20385;-74
2022/03/15 11:19:50;;;;;;;16.85;4.68;;;12.50;99.90;;;;;;5016136;28;20077;-75
2022/03/15 11:22:27;;;;;;;16.42;4.90;;;12.50;99.90;;;;;;5016335;28;20548;-76
2022/03/15 11:25:02;;;;;;;21.70;5.35;;;12.90;99.90;;;;;;5033811;28;20037;-75
2022/03/15 11:27:35;;;;;;;20.98;6.35;;;12.70;99.90;;;;;;5033949;28;20026;-75
2022/03/15 11:30:04;;;;;;;16.35;5.10;;;12.70;99.90;;;;;;5034671;28;20433;-75
2022/03/15 11:32:35;;;;;;;15.30;5.18;;;13.00;99.90;;;;;;5033958;28;20069;-75
2022/03/15 11:35:02;;;;;;;22.95;5.95;;;13.40;99.90;;;;;;5034093;28;20048;-75
2022/03/15 11:37:29;;;;;;;18.75;5.07;;;13.60;99.90;;;;;;5004280;28;20076;-76
2022/03/15 11:39:55;;;;;;;23.38;5.32;;;13.60;99.90;;;;;;5013857;28;20045;-75
2022/03/15 11:42:21;;;;;;;16.95;5.38;;;13.30;99.90;;;;;;5013665;28;20105;-75
2022/03/15 11:45:08;;;;;;;15.15;5.95;;;13.40;99.90;;;;;;4996733;28;20125;-74
2022/03/15 11:47:55;;;;;;;16.80;6.00;;;13.40;99.90;;;;;;5013537;28;20026;-75
2022/03/15 11:50:32;;;;;;;17.35;4.40;;;13.70;99.90;;;;;;4996036;28;20041;-74
2022/03/15 11:53:07;;;;;;;18.80;4.30;;;15.50;99.90;;;;;;4993874;28;20483;-75
2022/03/15 11:55:52;;;;;;;9.20;3.72;;;16.40;99.90;;;;;;5014201;28;20482;-76
2022/03/15 11:58:26;;;;;;;14.00;3.35;;;17.10;98.50;;;;;;5013695;28;20539;-76
2022/03/15 12:00:53;;;;;;;11.48;4.28;;;18.50;97.30;;;;;;4996598;28;20082;-75
2022/03/15 12:03:23;;;;;;;20.30;4.80;;;18.80;95.00;;;;;;5013742;28;20065;-75
2022/03/15 12:05:57;;;;;;;10.95;3.58;;;20.30;94.00;;;;;;5013720;28;20516;-75
2022/03/15 12:08:26;;;;;;;16.65;4.10;;;20.60;92.70;;;;;;4996054;28;20036;-75
2022/03/15 12:11:01;;;;;;;12.95;3.70;;;20.80;92.20;;;;;;4996261;28;20121;-76
2022/03/15 12:13:41;;;;;;;14.50;3.95;;;19.20;93.50;;;;;;5013470;28;20034;-76
2022/03/15 12:16:15;;;;;;;9.18;4.03;;;19.20;93.40;;;;;;5013913;28;20390;-75
2022/03/15 12:18:43;;;;;;;20.02;3.33;;;20.60;92.60;;;;;;5013718;28;20042;-75
2022/03/15 12:21:10;;;;;;;19.90;3.70;;;20.00;92.50;;;;;;5013519;28;20061;-74
2022/03/15 12:23:45;;;;;;;5.82;3.40;;;19.90;92.70;;;;;;4995877;28;20478;-76
2022/03/15 12:26:26;;;;;;;14.05;3.90;;;20.20;92.50;;;;;;4996153;28;20038;-75
2022/03/15 12:29:12;;;;;;;13.20;4.07;;;21.00;92.20;;;;;;5032621;28;20040;-75
2022/03/15 12:31:42;;;;;;;15.07;4.50;;;21.40;91.80;;;;;;5033426;28;20045;-74
2022/03/15 12:34:13;;;;;;;12.18;3.55;;;22.40;91.10;;;;;;5033230;28;20465;-74
2022/03/15 12:36:51;;;;;;;6.25;2.65;;;23.20;89.80;;;;;;5033178;28;20030;-75
2022/03/15 12:39:19;;;;;;;4.60;2.13;;;23.80;89.90;;;;;;5015477;28;20524;-75
2022/03/15 12:42:05;;;;;;;4.93;2.42;;;23.90;88.80;;;;;;5033365;28;20108;-76
2022/03/15 12:44:46;;;;;;;5.90;2.58;;;22.70;87.90;;;;;;5015416;28;20029;-75
2022/03/15 12:47:18;;;;;;;7.97;2.45;;;22.10;90.20;;;;;;5033125;28;20389;-75